Strona główna
METAR-TAF:

METAR-TAF

Lotnisko :

Odiham, Anglia

Szerokość geograficzna: 51-14N, Długość geograficzna: 000-57W, wysokość: 123 m

Aktualna obserwacja pogody

Raport powstał 35 minut temu, godzina 19:50 UTC
Wiatr 5 kt od zachód
Temperatura 18°C
Wilgotność 56%
Ciśnienie 1012 hPa
Widzialność 10 km lub więcej
Brak chmur poniżej 1500 m i brak chmur cumulonimbus

METAR: EGVO 181950Z 26005KT CAVOK 18/09 Q1012 NOSIG RMK BLU BLU

czas: 21:25 (20:25 UTC)

Prognoza

Raport powstał 4 godziny i 6 minut temu, godzina 16:19 UTC
Prognoza ważna od 18 godzina 18 UTC do 19 godzina 06 UTC
Wiatr 8 kt od zachodnio-południowy zachód
Widzialność 10 km lub więcej
Mało chmury na wysokości 4000 ft
Prawdopodobieństwo 30% :
Przejściowo
od 19 godzina 05 UTC do 19 godzina 06 UTC
Rozproszone chmury na wysokości 2200 ft

TAF: EGVO 181619Z 1818/1906 25008KT 9999 FEW040 PROB30 TEMPO 1905/1906 SCT022

Obserwacja i prognoza pogody dla ponad 4000 lotnisk (raport METAR i TAF).

Dostępne stacje oznaczono żółtymi i czerwonymi punktami na mapie.

Najedź kursorem aby zobaczyć nazwę stacji.

Kliknij aby zobaczyć obserwacje i prognozy pogody.

Aby zmienić mapę: kliknij na zielony przycisk z czarnym krzyżykiem, aby powiększyć; na zielony przycisk z myślnikiem, aby pomniejszyć; na zielone strzałki, aby przejść do map sąsiednich.


METAR-TAF: